sensor_id;sensor_type;location;lat;lon;timestamp;temperature;humidity
48666;DHT22;34452;50.796;4.994;2022-12-07T00:02:19;5.60;99.90
48666;DHT22;34452;50.796;4.994;2022-12-07T00:04:44;5.60;99.90
48666;DHT22;34452;50.796;4.994;2022-12-07T00:07:10;5.60;99.90
48666;DHT22;34452;50.796;4.994;2022-12-07T00:09:36;5.60;99.90
48666;DHT22;34452;50.796;4.994;2022-12-07T00:12:01;5.60;99.90
48666;DHT22;34452;50.796;4.994;2022-12-07T00:14:27;5.60;99.90
48666;DHT22;34452;50.796;4.994;2022-12-07T00:16:53;5.60;99.90
48666;DHT22;34452;50.796;4.994;2022-12-07T00:19:19;5.60;99.90
48666;DHT22;34452;50.796;4.994;2022-12-07T00:21:45;5.60;99.90
48666;DHT22;34452;50.796;4.994;2022-12-07T00:24:11;5.60;99.90
48666;DHT22;34452;50.796;4.994;2022-12-07T00:26:39;5.50;99.90
48666;DHT22;34452;50.796;4.994;2022-12-07T00:29:07;5.50;99.90
48666;DHT22;34452;50.796;4.994;2022-12-07T00:31:36;5.40;99.90
48666;DHT22;34452;50.796;4.994;2022-12-07T00:34:05;5.40;99.90
48666;DHT22;34452;50.796;4.994;2022-12-07T00:36:31;5.40;99.90
48666;DHT22;34452;50.796;4.994;2022-12-07T00:38:58;5.30;99.90
48666;DHT22;34452;50.796;4.994;2022-12-07T00:41:25;5.30;99.90
48666;DHT22;34452;50.796;4.994;2022-12-07T00:43:51;5.20;99.90
48666;DHT22;34452;50.796;4.994;2022-12-07T00:46:18;5.20;99.90
48666;DHT22;34452;50.796;4.994;2022-12-07T00:48:45;5.20;99.90
48666;DHT22;34452;50.796;4.994;2022-12-07T00:51:11;5.20;99.90
48666;DHT22;34452;50.796;4.994;2022-12-07T00:53:38;5.20;99.90
48666;DHT22;34452;50.796;4.994;2022-12-07T00:56:12;5.20;99.90
48666;DHT22;34452;50.796;4.994;2022-12-07T00:58:38;5.10;99.90
48666;DHT22;34452;50.796;4.994;2022-12-07T01:01:05;5.20;99.90
48666;DHT22;34452;50.796;4.994;2022-12-07T01:03:31;5.20;99.90
48666;DHT22;34452;50.796;4.994;2022-12-07T01:05:57;5.20;99.90
48666;DHT22;34452;50.796;4.994;2022-12-07T01:08:24;5.20;99.90
48666;DHT22;34452;50.796;4.994;2022-12-07T01:11:01;5.30;99.90
48666;DHT22;34452;50.796;4.994;2022-12-07T01:13:27;5.30;99.90
48666;DHT22;34452;50.796;4.994;2022-12-07T01:15:57;5.30;99.90
48666;DHT22;34452;50.796;4.994;2022-12-07T01:18:23;5.20;99.90
48666;DHT22;34452;50.796;4.994;2022-12-07T01:20:59;5.20;99.90
48666;DHT22;34452;50.796;4.994;2022-12-07T01:23:26;5.20;99.90
48666;DHT22;34452;50.796;4.994;2022-12-07T01:26:00;5.20;99.90
48666;DHT22;34452;50.796;4.994;2022-12-07T01:28:27;5.20;99.90
48666;DHT22;34452;50.796;4.994;2022-12-07T01:30:59;5.30;99.90
48666;DHT22;34452;50.796;4.994;2022-12-07T01:33:30;5.30;99.90
48666;DHT22;34452;50.796;4.994;2022-12-07T01:36:03;5.30;99.90
48666;DHT22;34452;50.796;4.994;2022-12-07T01:38:30;5.30;99.90
48666;DHT22;34452;50.796;4.994;2022-12-07T01:40:57;5.40;99.90
48666;DHT22;34452;50.796;4.994;2022-12-07T01:43:24;5.40;99.90
48666;DHT22;34452;50.796;4.994;2022-12-07T01:45:51;5.40;99.90
48666;DHT22;34452;50.796;4.994;2022-12-07T01:48:19;5.40;99.90
48666;DHT22;34452;50.796;4.994;2022-12-07T01:50:48;5.40;99.90
48666;DHT22;34452;50.796;4.994;2022-12-07T01:53:15;5.40;99.90
48666;DHT22;34452;50.796;4.994;2022-12-07T01:55:44;5.40;99.90
48666;DHT22;34452;50.796;4.994;2022-12-07T01:58:11;5.40;99.90
48666;DHT22;34452;50.796;4.994;2022-12-07T02:00:38;5.40;99.90
48666;DHT22;34452;50.796;4.994;2022-12-07T02:03:09;5.30;99.90
48666;DHT22;34452;50.796;4.994;2022-12-07T02:05:38;5.20;99.90
48666;DHT22;34452;50.796;4.994;2022-12-07T02:08:06;5.10;99.90
48666;DHT22;34452;50.796;4.994;2022-12-07T02:10:32;5.00;99.90
48666;DHT22;34452;50.796;4.994;2022-12-07T02:13:06;5.00;99.90
48666;DHT22;34452;50.796;4.994;2022-12-07T02:26:46;5.00;99.90
48666;DHT22;34452;50.796;4.994;2022-12-07T02:29:23;5.00;99.90
48666;DHT22;34452;50.796;4.994;2022-12-07T02:42:40;5.10;99.90
48666;DHT22;34452;50.796;4.994;2022-12-07T02:45:08;5.10;99.90
48666;DHT22;34452;50.796;4.994;2022-12-07T02:47:36;5.10;99.90
48666;DHT22;34452;50.796;4.994;2022-12-07T02:50:04;5.00;99.90
48666;DHT22;34452;50.796;4.994;2022-12-07T02:52:30;5.00;99.90
48666;DHT22;34452;50.796;4.994;2022-12-07T02:54:56;5.00;99.90
48666;DHT22;34452;50.796;4.994;2022-12-07T02:57:32;5.00;99.90
48666;DHT22;34452;50.796;4.994;2022-12-07T03:05:36;5.00;99.90
48666;DHT22;34452;50.796;4.994;2022-12-07T03:15:40;5.00;99.90
48666;DHT22;34452;50.796;4.994;2022-12-07T03:18:09;5.00;99.90
48666;DHT22;34452;50.796;4.994;2022-12-07T03:20:37;5.00;99.90
48666;DHT22;34452;50.796;4.994;2022-12-07T03:23:08;5.10;99.90
48666;DHT22;34452;50.796;4.994;2022-12-07T03:25:40;5.10;99.90
48666;DHT22;34452;50.796;4.994;2022-12-07T03:28:08;5.10;99.90
48666;DHT22;34452;50.796;4.994;2022-12-07T03:30:44;5.10;99.90
48666;DHT22;34452;50.796;4.994;2022-12-07T03:33:22;5.00;99.90
48666;DHT22;34452;50.796;4.994;2022-12-07T03:36:01;5.00;99.90
48666;DHT22;34452;50.796;4.994;2022-12-07T03:38:45;5.00;99.90
48666;DHT22;34452;50.796;4.994;2022-12-07T03:41:16;5.00;99.90
48666;DHT22;34452;50.796;4.994;2022-12-07T03:43:44;5.00;99.90
48666;DHT22;34452;50.796;4.994;2022-12-07T03:52:10;5.00;99.90
48666;DHT22;34452;50.796;4.994;2022-12-07T03:57:30;5.00;99.90
48666;DHT22;34452;50.796;4.994;2022-12-07T03:59:57;4.90;99.90
48666;DHT22;34452;50.796;4.994;2022-12-07T04:02:25;4.90;99.90
48666;DHT22;34452;50.796;4.994;2022-12-07T04:04:52;4.90;99.90
48666;DHT22;34452;50.796;4.994;2022-12-07T04:07:18;4.80;99.90
48666;DHT22;34452;50.796;4.994;2022-12-07T04:09:45;4.80;99.90
48666;DHT22;34452;50.796;4.994;2022-12-07T04:12:10;4.80;99.90
48666;DHT22;34452;50.796;4.994;2022-12-07T04:14:36;4.80;99.90
48666;DHT22;34452;50.796;4.994;2022-12-07T04:17:02;4.80;99.90
48666;DHT22;34452;50.796;4.994;2022-12-07T04:19:29;4.80;99.90
48666;DHT22;34452;50.796;4.994;2022-12-07T04:21:57;4.80;99.90
48666;DHT22;34452;50.796;4.994;2022-12-07T04:24:23;4.80;99.90
48666;DHT22;34452;50.796;4.994;2022-12-07T04:26:49;4.70;99.90
48666;DHT22;34452;50.796;4.994;2022-12-07T04:29:15;4.70;99.90
48666;DHT22;34452;50.796;4.994;2022-12-07T04:31:41;4.70;99.90
48666;DHT22;34452;50.796;4.994;2022-12-07T04:34:08;4.70;99.90
48666;DHT22;34452;50.796;4.994;2022-12-07T04:36:34;4.80;99.90
48666;DHT22;34452;50.796;4.994;2022-12-07T04:39:00;4.90;99.90
48666;DHT22;34452;50.796;4.994;2022-12-07T04:41:26;4.90;99.90
48666;DHT22;34452;50.796;4.994;2022-12-07T04:44:11;4.90;99.90
48666;DHT22;34452;50.796;4.994;2022-12-07T04:46:39;4.90;99.90
48666;DHT22;34452;50.796;4.994;2022-12-07T04:49:05;4.90;99.90
48666;DHT22;34452;50.796;4.994;2022-12-07T04:51:31;4.80;99.90
48666;DHT22;34452;50.796;4.994;2022-12-07T04:53:57;4.70;99.90
48666;DHT22;34452;50.796;4.994;2022-12-07T04:56:23;4.60;99.90
48666;DHT22;34452;50.796;4.994;2022-12-07T04:58:49;4.60;99.90
48666;DHT22;34452;50.796;4.994;2022-12-07T05:01:17;4.60;99.90
48666;DHT22;34452;50.796;4.994;2022-12-07T05:03:42;4.50;99.90
48666;DHT22;34452;50.796;4.994;2022-12-07T05:06:09;4.50;99.90
48666;DHT22;34452;50.796;4.994;2022-12-07T05:08:35;4.50;99.90
48666;DHT22;34452;50.796;4.994;2022-12-07T05:11:02;4.50;99.90
48666;DHT22;34452;50.796;4.994;2022-12-07T05:13:28;4.50;99.90
48666;DHT22;34452;50.796;4.994;2022-12-07T05:15:54;4.50;99.90
48666;DHT22;34452;50.796;4.994;2022-12-07T05:18:19;4.50;99.90
48666;DHT22;34452;50.796;4.994;2022-12-07T05:20:45;4.50;99.90
48666;DHT22;34452;50.796;4.994;2022-12-07T05:23:11;4.50;99.90
48666;DHT22;34452;50.796;4.994;2022-12-07T05:25:37;4.50;99.90
48666;DHT22;34452;50.796;4.994;2022-12-07T05:28:04;4.50;99.90
48666;DHT22;34452;50.796;4.994;2022-12-07T05:30:30;4.40;99.90
48666;DHT22;34452;50.796;4.994;2022-12-07T05:32:55;4.40;99.90
48666;DHT22;34452;50.796;4.994;2022-12-07T05:35:21;4.30;99.90
48666;DHT22;34452;50.796;4.994;2022-12-07T05:37:47;4.30;99.90
48666;DHT22;34452;50.796;4.994;2022-12-07T05:40:13;4.30;99.90
48666;DHT22;34452;50.796;4.994;2022-12-07T05:42:40;4.30;99.90
48666;DHT22;34452;50.796;4.994;2022-12-07T05:45:06;4.30;99.90
48666;DHT22;34452;50.796;4.994;2022-12-07T05:47:32;4.30;99.90
48666;DHT22;34452;50.796;4.994;2022-12-07T05:49:58;4.30;99.90
48666;DHT22;34452;50.796;4.994;2022-12-07T05:52:24;4.30;99.90
48666;DHT22;34452;50.796;4.994;2022-12-07T05:54:50;4.30;99.90
48666;DHT22;34452;50.796;4.994;2022-12-07T05:57:15;4.30;99.90
48666;DHT22;34452;50.796;4.994;2022-12-07T05:59:41;4.40;99.90
48666;DHT22;34452;50.796;4.994;2022-12-07T06:02:10;4.40;99.90
48666;DHT22;34452;50.796;4.994;2022-12-07T06:04:39;4.40;99.90
48666;DHT22;34452;50.796;4.994;2022-12-07T06:07:05;4.50;99.90
48666;DHT22;34452;50.796;4.994;2022-12-07T06:09:32;4.60;99.90
48666;DHT22;34452;50.796;4.994;2022-12-07T06:11:59;4.70;99.90
48666;DHT22;34452;50.796;4.994;2022-12-07T06:14:43;4.70;99.90
48666;DHT22;34452;50.796;4.994;2022-12-07T06:17:10;4.70;99.90
48666;DHT22;34452;50.796;4.994;2022-12-07T06:19:35;4.80;99.90
48666;DHT22;34452;50.796;4.994;2022-12-07T06:22:02;4.70;99.90
48666;DHT22;34452;50.796;4.994;2022-12-07T06:24:30;4.80;99.90
48666;DHT22;34452;50.796;4.994;2022-12-07T06:26:56;4.80;99.90
48666;DHT22;34452;50.796;4.994;2022-12-07T06:29:22;4.80;99.90
48666;DHT22;34452;50.796;4.994;2022-12-07T06:31:48;4.80;99.90
48666;DHT22;34452;50.796;4.994;2022-12-07T06:34:16;4.80;99.90
48666;DHT22;34452;50.796;4.994;2022-12-07T06:36:42;4.80;99.90
48666;DHT22;34452;50.796;4.994;2022-12-07T06:39:08;4.80;99.90
48666;DHT22;34452;50.796;4.994;2022-12-07T06:41:37;4.80;99.90
48666;DHT22;34452;50.796;4.994;2022-12-07T06:44:04;4.80;99.90
48666;DHT22;34452;50.796;4.994;2022-12-07T06:46:30;4.80;99.90
48666;DHT22;34452;50.796;4.994;2022-12-07T06:48:56;4.80;99.90
48666;DHT22;34452;50.796;4.994;2022-12-07T06:51:22;4.80;99.90
48666;DHT22;34452;50.796;4.994;2022-12-07T06:53:48;4.80;99.90
48666;DHT22;34452;50.796;4.994;2022-12-07T06:56:14;4.70;99.90
48666;DHT22;34452;50.796;4.994;2022-12-07T06:58:40;4.70;99.90
48666;DHT22;34452;50.796;4.994;2022-12-07T07:01:12;4.70;99.90
48666;DHT22;34452;50.796;4.994;2022-12-07T07:03:38;4.60;99.90
48666;DHT22;34452;50.796;4.994;2022-12-07T07:06:05;4.60;99.90
48666;DHT22;34452;50.796;4.994;2022-12-07T07:08:31;4.60;99.90
48666;DHT22;34452;50.796;4.994;2022-12-07T07:10:57;4.60;99.90
48666;DHT22;34452;50.796;4.994;2022-12-07T07:13:23;4.60;99.90
48666;DHT22;34452;50.796;4.994;2022-12-07T07:15:48;4.60;99.90
48666;DHT22;34452;50.796;4.994;2022-12-07T07:18:14;4.60;99.90
48666;DHT22;34452;50.796;4.994;2022-12-07T07:20:40;4.60;99.90
48666;DHT22;34452;50.796;4.994;2022-12-07T07:23:06;4.60;99.90
48666;DHT22;34452;50.796;4.994;2022-12-07T07:25:32;4.70;99.90
48666;DHT22;34452;50.796;4.994;2022-12-07T07:27:58;4.70;99.90
48666;DHT22;34452;50.796;4.994;2022-12-07T07:30:24;4.70;99.90
48666;DHT22;34452;50.796;4.994;2022-12-07T07:32:50;4.70;99.90
48666;DHT22;34452;50.796;4.994;2022-12-07T07:35:16;4.70;99.90
48666;DHT22;34452;50.796;4.994;2022-12-07T07:37:42;4.70;99.90
48666;DHT22;34452;50.796;4.994;2022-12-07T07:40:08;4.70;99.90
48666;DHT22;34452;50.796;4.994;2022-12-07T07:42:34;4.80;99.90
48666;DHT22;34452;50.796;4.994;2022-12-07T07:45:00;4.80;99.90
48666;DHT22;34452;50.796;4.994;2022-12-07T07:47:26;4.80;99.90
48666;DHT22;34452;50.796;4.994;2022-12-07T07:49:52;4.80;99.90
48666;DHT22;34452;50.796;4.994;2022-12-07T07:52:17;4.80;99.90
48666;DHT22;34452;50.796;4.994;2022-12-07T07:54:43;4.80;99.90
48666;DHT22;34452;50.796;4.994;2022-12-07T07:57:09;4.70;99.90
48666;DHT22;34452;50.796;4.994;2022-12-07T07:59:34;4.70;99.90
48666;DHT22;34452;50.796;4.994;2022-12-07T08:02:00;4.70;99.90
48666;DHT22;34452;50.796;4.994;2022-12-07T08:04:26;4.60;99.90
48666;DHT22;34452;50.796;4.994;2022-12-07T08:06:52;4.60;99.90
48666;DHT22;34452;50.796;4.994;2022-12-07T08:09:18;4.50;99.90
48666;DHT22;34452;50.796;4.994;2022-12-07T08:11:43;4.50;99.90
48666;DHT22;34452;50.796;4.994;2022-12-07T08:14:10;4.50;99.90
48666;DHT22;34452;50.796;4.994;2022-12-07T08:16:37;4.50;99.90
48666;DHT22;34452;50.796;4.994;2022-12-07T08:19:05;4.50;99.90
48666;DHT22;34452;50.796;4.994;2022-12-07T08:21:30;4.50;99.90
48666;DHT22;34452;50.796;4.994;2022-12-07T08:23:57;4.60;99.90
48666;DHT22;34452;50.796;4.994;2022-12-07T08:26:22;4.60;99.90
48666;DHT22;34452;50.796;4.994;2022-12-07T08:28:48;4.50;99.90
48666;DHT22;34452;50.796;4.994;2022-12-07T08:31:16;4.50;99.90
48666;DHT22;34452;50.796;4.994;2022-12-07T08:33:45;4.60;99.90
48666;DHT22;34452;50.796;4.994;2022-12-07T08:36:12;4.60;99.90
48666;DHT22;34452;50.796;4.994;2022-12-07T08:38:40;4.60;99.90
48666;DHT22;34452;50.796;4.994;2022-12-07T08:41:06;4.60;99.90
48666;DHT22;34452;50.796;4.994;2022-12-07T08:43:32;4.60;99.90
48666;DHT22;34452;50.796;4.994;2022-12-07T08:48:53;4.50;99.90
48666;DHT22;34452;50.796;4.994;2022-12-07T08:51:21;4.50;99.90
48666;DHT22;34452;50.796;4.994;2022-12-07T08:53:49;4.60;99.90
48666;DHT22;34452;50.796;4.994;2022-12-07T08:56:15;4.60;99.90
48666;DHT22;34452;50.796;4.994;2022-12-07T08:58:42;4.70;99.90
48666;DHT22;34452;50.796;4.994;2022-12-07T09:01:08;4.70;99.90
48666;DHT22;34452;50.796;4.994;2022-12-07T09:03:33;4.80;99.90
48666;DHT22;34452;50.796;4.994;2022-12-07T09:05:59;4.90;99.90
48666;DHT22;34452;50.796;4.994;2022-12-07T09:08:31;4.90;99.90
48666;DHT22;34452;50.796;4.994;2022-12-07T09:10:58;5.10;99.90
48666;DHT22;34452;50.796;4.994;2022-12-07T09:13:24;5.10;99.90
48666;DHT22;34452;50.796;4.994;2022-12-07T09:15:50;5.20;99.90
48666;DHT22;34452;50.796;4.994;2022-12-07T09:18:15;5.20;99.90
48666;DHT22;34452;50.796;4.994;2022-12-07T09:20:41;5.30;99.90
48666;DHT22;34452;50.796;4.994;2022-12-07T09:23:07;5.30;99.90
48666;DHT22;34452;50.796;4.994;2022-12-07T09:25:34;5.30;99.90
48666;DHT22;34452;50.796;4.994;2022-12-07T09:28:00;5.40;99.90
48666;DHT22;34452;50.796;4.994;2022-12-07T09:30:26;5.40;99.90
48666;DHT22;34452;50.796;4.994;2022-12-07T09:32:54;5.40;99.90
48666;DHT22;34452;50.796;4.994;2022-12-07T09:35:20;5.40;99.90
48666;DHT22;34452;50.796;4.994;2022-12-07T09:37:46;5.40;99.90
48666;DHT22;34452;50.796;4.994;2022-12-07T09:40:13;5.30;99.90
48666;DHT22;34452;50.796;4.994;2022-12-07T09:42:43;5.30;99.90
48666;DHT22;34452;50.796;4.994;2022-12-07T09:45:21;5.30;99.90
48666;DHT22;34452;50.796;4.994;2022-12-07T09:47:47;5.30;99.90
48666;DHT22;34452;50.796;4.994;2022-12-07T09:50:15;5.40;99.90
48666;DHT22;34452;50.796;4.994;2022-12-07T09:52:44;5.50;99.90
48666;DHT22;34452;50.796;4.994;2022-12-07T09:55:16;5.60;99.90
48666;DHT22;34452;50.796;4.994;2022-12-07T09:57:45;5.70;99.90
48666;DHT22;34452;50.796;4.994;2022-12-07T10:00:16;5.80;99.90
48666;DHT22;34452;50.796;4.994;2022-12-07T10:02:46;5.80;99.90
48666;DHT22;34452;50.796;4.994;2022-12-07T10:05:16;5.80;99.90
48666;DHT22;34452;50.796;4.994;2022-12-07T10:07:42;5.90;99.90
48666;DHT22;34452;50.796;4.994;2022-12-07T10:10:48;6.00;99.90
48666;DHT22;34452;50.796;4.994;2022-12-07T10:13:20;6.10;99.90
48666;DHT22;34452;50.796;4.994;2022-12-07T10:15:55;6.20;99.90
48666;DHT22;34452;50.796;4.994;2022-12-07T10:26:52;6.30;99.90
48666;DHT22;34452;50.796;4.994;2022-12-07T10:29:31;6.30;99.90
48666;DHT22;34452;50.796;4.994;2022-12-07T10:32:03;6.30;99.90
48666;DHT22;34452;50.796;4.994;2022-12-07T10:34:33;6.30;99.90
48666;DHT22;34452;50.796;4.994;2022-12-07T10:37:16;6.40;99.90
48666;DHT22;34452;50.796;4.994;2022-12-07T10:44:45;6.60;99.90
48666;DHT22;34452;50.796;4.994;2022-12-07T10:49:55;6.80;99.90
48666;DHT22;34452;50.796;4.994;2022-12-07T10:55:56;6.90;99.90
48666;DHT22;34452;50.796;4.994;2022-12-07T11:01:29;6.80;99.90
48666;DHT22;34452;50.796;4.994;2022-12-07T11:06:53;6.80;99.90
48666;DHT22;34452;50.796;4.994;2022-12-07T11:12:12;6.90;99.90
48666;DHT22;34452;50.796;4.994;2022-12-07T11:15:04;6.80;99.90
48666;DHT22;34452;50.796;4.994;2022-12-07T11:18:05;6.80;99.90
48666;DHT22;34452;50.796;4.994;2022-12-07T11:26:00;6.90;99.90
48666;DHT22;34452;50.796;4.994;2022-12-07T11:36:52;7.10;99.90
48666;DHT22;34452;50.796;4.994;2022-12-07T11:42:01;7.00;99.90
48666;DHT22;34452;50.796;4.994;2022-12-07T11:52:45;7.10;99.90
48666;DHT22;34452;50.796;4.994;2022-12-07T11:58:10;7.20;99.90
48666;DHT22;34452;50.796;4.994;2022-12-07T12:00:39;7.30;99.90
48666;DHT22;34452;50.796;4.994;2022-12-07T12:03:17;7.30;99.90
48666;DHT22;34452;50.796;4.994;2022-12-07T12:05:46;7.40;99.90
48666;DHT22;34452;50.796;4.994;2022-12-07T12:08:21;7.40;99.90
48666;DHT22;34452;50.796;4.994;2022-12-07T12:22:18;7.60;99.90
48666;DHT22;34452;50.796;4.994;2022-12-07T12:24:49;7.60;99.90
48666;DHT22;34452;50.796;4.994;2022-12-07T12:27:34;7.60;99.90
48666;DHT22;34452;50.796;4.994;2022-12-07T12:30:03;7.60;99.90
48666;DHT22;34452;50.796;4.994;2022-12-07T12:32:40;7.60;99.90
48666;DHT22;34452;50.796;4.994;2022-12-07T12:38:26;7.60;99.90
48666;DHT22;34452;50.796;4.994;2022-12-07T12:40:54;7.70;99.90
48666;DHT22;34452;50.796;4.994;2022-12-07T12:43:46;7.70;99.90
48666;DHT22;34452;50.796;4.994;2022-12-07T12:46:37;7.80;99.90
48666;DHT22;34452;50.796;4.994;2022-12-07T12:51:49;7.80;99.90
48666;DHT22;34452;50.796;4.994;2022-12-07T12:54:19;7.80;99.90
48666;DHT22;34452;50.796;4.994;2022-12-07T12:56:51;7.70;99.90
48666;DHT22;34452;50.796;4.994;2022-12-07T12:59:30;7.80;99.90
48666;DHT22;34452;50.796;4.994;2022-12-07T13:02:20;7.80;99.90
48666;DHT22;34452;50.796;4.994;2022-12-07T13:08:03;7.70;99.90
48666;DHT22;34452;50.796;4.994;2022-12-07T13:10:39;7.60;99.90
48666;DHT22;34452;50.796;4.994;2022-12-07T13:26:18;7.40;99.90
48666;DHT22;34452;50.796;4.994;2022-12-07T13:33:46;7.30;99.90
48666;DHT22;34452;50.796;4.994;2022-12-07T13:36:23;7.20;99.90
48666;DHT22;34452;50.796;4.994;2022-12-07T13:38:56;7.10;99.90
48666;DHT22;34452;50.796;4.994;2022-12-07T13:41:24;7.10;99.90
48666;DHT22;34452;50.796;4.994;2022-12-07T13:44:11;7.00;99.90
48666;DHT22;34452;50.796;4.994;2022-12-07T13:49:27;7.20;99.90
48666;DHT22;34452;50.796;4.994;2022-12-07T13:51:54;7.20;99.90
48666;DHT22;34452;50.796;4.994;2022-12-07T13:54:21;7.30;99.90
48666;DHT22;34452;50.796;4.994;2022-12-07T13:56:52;7.30;99.90
48666;DHT22;34452;50.796;4.994;2022-12-07T13:59:24;7.30;99.90
48666;DHT22;34452;50.796;4.994;2022-12-07T14:01:51;7.30;99.90
48666;DHT22;34452;50.796;4.994;2022-12-07T14:04:37;7.40;99.90
48666;DHT22;34452;50.796;4.994;2022-12-07T14:07:25;7.50;99.90
48666;DHT22;34452;50.796;4.994;2022-12-07T14:10:00;7.60;99.90
48666;DHT22;34452;50.796;4.994;2022-12-07T14:12:27;7.60;99.90
48666;DHT22;34452;50.796;4.994;2022-12-07T14:14:54;7.70;99.90
48666;DHT22;34452;50.796;4.994;2022-12-07T14:17:23;7.70;99.90
48666;DHT22;34452;50.796;4.994;2022-12-07T14:19:53;7.70;99.90
48666;DHT22;34452;50.796;4.994;2022-12-07T14:22:26;7.60;99.90
48666;DHT22;34452;50.796;4.994;2022-12-07T14:27:29;7.20;99.90
48666;DHT22;34452;50.796;4.994;2022-12-07T14:29:56;7.20;99.90
48666;DHT22;34452;50.796;4.994;2022-12-07T14:32:27;7.10;99.90
48666;DHT22;34452;50.796;4.994;2022-12-07T14:34:59;7.00;99.90
48666;DHT22;34452;50.796;4.994;2022-12-07T14:37:27;7.00;99.90
48666;DHT22;34452;50.796;4.994;2022-12-07T14:39:53;6.90;99.90
48666;DHT22;34452;50.796;4.994;2022-12-07T14:42:19;6.90;99.90
48666;DHT22;34452;50.796;4.994;2022-12-07T14:44:45;6.50;99.90
48666;DHT22;34452;50.796;4.994;2022-12-07T14:47:11;6.20;99.90
48666;DHT22;34452;50.796;4.994;2022-12-07T14:49:37;6.10;99.90
48666;DHT22;34452;50.796;4.994;2022-12-07T14:52:03;6.10;99.90
48666;DHT22;34452;50.796;4.994;2022-12-07T14:54:32;6.00;99.90
48666;DHT22;34452;50.796;4.994;2022-12-07T14:56:58;5.90;99.90
48666;DHT22;34452;50.796;4.994;2022-12-07T14:59:24;5.90;99.90
48666;DHT22;34452;50.796;4.994;2022-12-07T15:01:50;5.80;99.90
48666;DHT22;34452;50.796;4.994;2022-12-07T15:04:15;5.80;99.90
48666;DHT22;34452;50.796;4.994;2022-12-07T15:06:41;5.80;99.90
48666;DHT22;34452;50.796;4.994;2022-12-07T15:09:10;5.80;99.90
48666;DHT22;34452;50.796;4.994;2022-12-07T15:11:36;5.90;99.90
48666;DHT22;34452;50.796;4.994;2022-12-07T15:14:02;5.90;99.90
48666;DHT22;34452;50.796;4.994;2022-12-07T15:16:34;5.90;99.90
48666;DHT22;34452;50.796;4.994;2022-12-07T15:19:00;5.90;99.90
48666;DHT22;34452;50.796;4.994;2022-12-07T15:21:26;6.00;99.90
48666;DHT22;34452;50.796;4.994;2022-12-07T15:23:53;6.00;99.90
48666;DHT22;34452;50.796;4.994;2022-12-07T15:26:19;6.00;99.90
48666;DHT22;34452;50.796;4.994;2022-12-07T15:28:45;6.10;99.90
48666;DHT22;34452;50.796;4.994;2022-12-07T15:31:15;6.10;99.90
48666;DHT22;34452;50.796;4.994;2022-12-07T15:33:41;6.20;99.90
48666;DHT22;34452;50.796;4.994;2022-12-07T15:36:07;6.20;99.90
48666;DHT22;34452;50.796;4.994;2022-12-07T15:38:33;6.20;99.90
48666;DHT22;34452;50.796;4.994;2022-12-07T15:40:58;6.10;99.90
48666;DHT22;34452;50.796;4.994;2022-12-07T15:43:24;6.10;99.90
48666;DHT22;34452;50.796;4.994;2022-12-07T15:46:08;6.20;99.90
48666;DHT22;34452;50.796;4.994;2022-12-07T15:48:34;6.20;99.90
48666;DHT22;34452;50.796;4.994;2022-12-07T15:51:04;6.20;99.90
48666;DHT22;34452;50.796;4.994;2022-12-07T15:53:31;6.20;99.90
48666;DHT22;34452;50.796;4.994;2022-12-07T15:55:57;6.10;99.90
48666;DHT22;34452;50.796;4.994;2022-12-07T15:58:22;6.10;99.90
48666;DHT22;34452;50.796;4.994;2022-12-07T16:00:48;6.10;99.90
48666;DHT22;34452;50.796;4.994;2022-12-07T16:03:14;6.00;99.90
48666;DHT22;34452;50.796;4.994;2022-12-07T16:05:40;6.00;99.90
48666;DHT22;34452;50.796;4.994;2022-12-07T16:08:06;5.90;99.90
48666;DHT22;34452;50.796;4.994;2022-12-07T16:10:32;5.90;99.90
48666;DHT22;34452;50.796;4.994;2022-12-07T16:12:58;5.80;99.90
48666;DHT22;34452;50.796;4.994;2022-12-07T16:15:23;5.80;99.90
48666;DHT22;34452;50.796;4.994;2022-12-07T16:17:51;5.80;99.90
48666;DHT22;34452;50.796;4.994;2022-12-07T16:20:17;5.70;99.90
48666;DHT22;34452;50.796;4.994;2022-12-07T16:22:42;5.70;99.90
48666;DHT22;34452;50.796;4.994;2022-12-07T16:25:08;5.70;99.90
48666;DHT22;34452;50.796;4.994;2022-12-07T16:27:35;5.70;99.90
48666;DHT22;34452;50.796;4.994;2022-12-07T16:30:00;5.70;99.90
48666;DHT22;34452;50.796;4.994;2022-12-07T16:32:26;5.70;99.90
48666;DHT22;34452;50.796;4.994;2022-12-07T16:34:52;5.70;99.90
48666;DHT22;34452;50.796;4.994;2022-12-07T16:37:18;5.70;99.90
48666;DHT22;34452;50.796;4.994;2022-12-07T16:39:43;5.70;99.90
48666;DHT22;34452;50.796;4.994;2022-12-07T16:42:10;5.70;99.90
48666;DHT22;34452;50.796;4.994;2022-12-07T16:44:35;5.70;99.90
48666;DHT22;34452;50.796;4.994;2022-12-07T16:47:01;5.60;99.90
48666;DHT22;34452;50.796;4.994;2022-12-07T16:49:27;5.60;99.90
48666;DHT22;34452;50.796;4.994;2022-12-07T16:51:53;5.60;99.90
48666;DHT22;34452;50.796;4.994;2022-12-07T16:54:19;5.60;99.90
48666;DHT22;34452;50.796;4.994;2022-12-07T16:56:44;5.60;99.90
48666;DHT22;34452;50.796;4.994;2022-12-07T16:59:10;5.60;99.90
48666;DHT22;34452;50.796;4.994;2022-12-07T17:01:36;5.60;99.90
48666;DHT22;34452;50.796;4.994;2022-12-07T17:04:03;5.60;99.90
48666;DHT22;34452;50.796;4.994;2022-12-07T17:06:29;5.60;99.90
48666;DHT22;34452;50.796;4.994;2022-12-07T17:08:56;5.70;99.90
48666;DHT22;34452;50.796;4.994;2022-12-07T17:11:28;5.70;99.90
48666;DHT22;34452;50.796;4.994;2022-12-07T17:13:54;5.70;99.90
48666;DHT22;34452;50.796;4.994;2022-12-07T17:16:38;5.70;99.90
48666;DHT22;34452;50.796;4.994;2022-12-07T17:19:09;5.70;99.90
48666;DHT22;34452;50.796;4.994;2022-12-07T17:21:36;5.70;99.90
48666;DHT22;34452;50.796;4.994;2022-12-07T17:24:03;5.70;99.90
48666;DHT22;34452;50.796;4.994;2022-12-07T17:26:30;5.70;99.90
48666;DHT22;34452;50.796;4.994;2022-12-07T17:28:56;5.70;99.90
48666;DHT22;34452;50.796;4.994;2022-12-07T17:31:23;5.70;99.90
48666;DHT22;34452;50.796;4.994;2022-12-07T17:33:49;5.70;99.90
48666;DHT22;34452;50.796;4.994;2022-12-07T17:36:17;5.70;99.90
48666;DHT22;34452;50.796;4.994;2022-12-07T17:38:44;5.60;99.90
48666;DHT22;34452;50.796;4.994;2022-12-07T17:41:22;5.70;99.90
48666;DHT22;34452;50.796;4.994;2022-12-07T17:44:10;5.70;99.90
48666;DHT22;34452;50.796;4.994;2022-12-07T17:46:36;5.70;99.90
48666;DHT22;34452;50.796;4.994;2022-12-07T17:49:02;5.70;99.90
48666;DHT22;34452;50.796;4.994;2022-12-07T17:51:29;5.70;99.90
48666;DHT22;34452;50.796;4.994;2022-12-07T17:54:14;5.70;99.90
48666;DHT22;34452;50.796;4.994;2022-12-07T17:56:40;5.70;99.90
48666;DHT22;34452;50.796;4.994;2022-12-07T17:59:06;5.70;99.90
48666;DHT22;34452;50.796;4.994;2022-12-07T18:01:32;5.70;99.90
48666;DHT22;34452;50.796;4.994;2022-12-07T18:03:58;5.70;99.90
48666;DHT22;34452;50.796;4.994;2022-12-07T18:06:23;5.80;99.90
48666;DHT22;34452;50.796;4.994;2022-12-07T18:08:50;5.80;99.90
48666;DHT22;34452;50.796;4.994;2022-12-07T18:11:16;5.70;99.90
48666;DHT22;34452;50.796;4.994;2022-12-07T18:13:42;5.70;99.90
48666;DHT22;34452;50.796;4.994;2022-12-07T18:16:12;5.80;99.90
48666;DHT22;34452;50.796;4.994;2022-12-07T18:18:38;5.80;99.90
48666;DHT22;34452;50.796;4.994;2022-12-07T18:21:08;5.70;99.90